Terminal Aerodrome Forecast
Issued by NWS Charleston, WV

Current Version | Previous Version | Text Only | Print | Product List | Glossary Off
Versions: 1 2 3 4 5 6 7 8 9 10 11 12 13 14 15 16 17 18 19 20 21 22 23 24 25 26 27

000
FTUS41 KRLX 141100
TAFBKW
TAF
KBKW 141120Z 1412/1512 12005KT P6SM BKN004
      TEMPO 1412/1414 SCT004 OVC015
     FM141400 12004KT P6SM BKN008
     FM142100 14004KT P6SM SCT010
     FM150300 VRB03KT P6SM BKN010
     FM150900 00000KT P6SM SCT010=

USA.gov is the U.S. government's official web portal to all federal, state and local government web resources and services.